Time;durP1;ratioP1;P1;durP2;ratioP2;P2;SDS_P1;SDS_P2;PMS_P1;PMS_P2;Temp;Humidity;BMP_temperature;BMP_pressure;BME280_temperature;BME280_humidity;BME280_pressure;Samples;Min_cycle;Max_cycle;Signal;HPM_P1;HPM_P2
2021/05/12 00:02:14;;;;;;;9.27;3.10;;;;;;;17.05;32.08;99516.41;128161;1098;100845;-80
2021/05/12 00:05:03;;;;;;;4.50;2.70;;;;;;;16.99;32.29;99512.43;128237;1098;101148;-80
2021/05/12 00:07:52;;;;;;;7.60;2.90;;;;;;;16.93;32.32;99519.93;128229;1098;101007;-81
2021/05/12 00:10:39;;;;;;;4.73;3.00;;;;;;;16.87;32.50;99510.64;127993;1098;101564;-80
2021/05/12 00:13:26;;;;;;;7.20;3.13;;;;;;;16.79;32.42;99521.72;128211;1098;100813;-80
2021/05/12 00:16:14;;;;;;;;;;;;;;;16.73;32.80;99516.89;128287;1098;101150;-80
2021/05/12 00:19:02;;;;;;;9.83;4.07;;;;;;;16.65;32.77;99513.89;127986;1098;101131;-80
2021/05/12 00:21:54;;;;;;;4.63;2.90;;;;;;;16.59;33.04;99509.06;128043;1098;100711;-80
2021/05/12 00:24:42;;;;;;;6.57;3.67;;;;;;;16.54;32.86;99511.17;128123;1098;100841;-80
2021/05/12 00:27:29;;;;;;;6.67;3.10;;;;;;;16.48;32.97;99506.30;128193;1098;100897;-80
2021/05/12 00:30:19;;;;;;;;;;;;;;;16.43;33.08;99535.58;128013;1098;100743;-80
2021/05/12 00:33:07;;;;;;;6.63;2.80;;;;;;;16.37;33.15;99498.31;128003;1098;100832;-80
2021/05/12 00:35:55;;;;;;;;;;;;;;;16.32;33.11;99496.81;128258;1098;100711;-80
2021/05/12 00:38:42;;;;;;;6.18;2.65;;;;;;;16.26;33.06;99505.13;128024;1098;100773;-80
2021/05/12 00:41:30;;;;;;;9.03;3.30;;;;;;;16.23;33.42;99493.98;128008;1098;100882;-80
2021/05/12 00:44:19;;;;;;;6.43;3.20;;;;;;;16.19;33.34;99509.13;128038;1098;101611;-80
2021/05/12 00:47:07;;;;;;;6.70;3.10;;;;;;;16.16;33.19;99493.56;127976;1098;102723;-80
2021/05/12 00:49:55;;;;;;;8.30;2.77;;;;;;;16.14;33.55;99508.57;128044;1098;100720;-81
2021/05/12 00:52:43;;;;;;;6.90;3.07;;;;;;;16.11;33.42;99482.48;128222;1098;101068;-80
2021/05/12 00:55:30;;;;;;;;;;;;;;;16.09;33.34;99499.31;128206;1098;101181;-80
2021/05/12 00:58:18;;;;;;;7.87;2.83;;;;;;;16.04;33.40;99486.48;128086;1098;100722;-80
2021/05/12 01:01:08;;;;;;;4.33;2.87;;;;;;;16.03;33.49;99491.84;128003;1098;100771;-80
2021/05/12 01:03:55;;;;;;;6.30;3.10;;;;;;;15.99;33.78;99489.42;128216;1098;100678;-80
2021/05/12 01:06:44;;;;;;;8.70;2.90;;;;;;;15.97;33.62;99493.06;128155;1098;100857;-80
2021/05/12 01:09:32;;;;;;;4.90;2.90;;;;;;;15.95;33.77;99487.07;127986;1098;101056;-80
2021/05/12 01:12:20;;;;;;;8.83;3.17;;;;;;;15.92;33.61;99485.49;128206;1098;103490;-80
2021/05/12 01:15:08;;;;;;;6.97;3.30;;;;;;;15.92;33.56;99497.80;128196;1098;100748;-80
2021/05/12 01:18:21;;;;;;;9.17;2.90;;;;;;;15.89;33.36;99487.48;128245;1098;100954;-80
2021/05/12 01:21:10;;;;;;;6.03;3.00;;;;;;;15.87;33.55;99473.60;128178;1098;100638;-80
2021/05/12 01:23:58;;;;;;;5.57;2.83;;;;;;;15.84;33.44;99473.81;128191;1098;100857;-79
2021/05/12 01:26:46;;;;;;;9.20;3.67;;;;;;;15.82;33.35;99465.19;128127;1098;100779;-79
2021/05/12 01:29:35;;;;;;;7.13;2.90;;;;;;;15.79;33.69;99470.62;128203;1099;101150;-80
2021/05/12 01:32:23;;;;;;;8.77;2.97;;;;;;;15.76;33.56;99471.67;128225;1098;101131;-80
2021/05/12 01:35:11;;;;;;;7.57;2.80;;;;;;;15.72;33.58;99475.45;128200;1098;102026;-80
2021/05/12 01:37:59;;;;;;;6.83;2.90;;;;;;;15.69;33.75;99475.66;128027;1098;100758;-80
2021/05/12 01:40:46;;;;;;;7.67;3.43;;;;;;;15.65;33.84;99469.77;128181;1098;101122;-80
2021/05/12 01:43:35;;;;;;;;;;;;;;;15.62;34.11;99464.70;128257;1098;100644;-80
2021/05/12 01:46:23;;;;;;;6.60;2.80;;;;;;;15.58;34.12;99468.42;128234;1098;100775;-80
2021/05/12 01:49:11;;;;;;;8.20;3.20;;;;;;;15.53;33.92;99462.63;128224;1098;101193;-80
2021/05/12 01:51:59;;;;;;;6.93;3.07;;;;;;;15.51;34.16;99461.89;128012;1098;101133;-80
2021/05/12 01:54:46;;;;;;;;;;;;;;;15.46;34.17;99450.84;128273;1098;101116;-80
2021/05/12 01:57:34;;;;;;;8.70;3.77;;;;;;;15.45;34.23;99459.67;128190;1098;100971;-80
2021/05/12 02:00:35;;;;;;;5.73;2.40;;;;;;;15.41;34.29;99445.02;128091;1098;100748;-80
2021/05/12 02:03:23;;;;;;;7.33;3.30;;;;;;;15.36;34.46;99450.58;128246;1098;103687;-80
2021/05/12 02:06:10;;;;;;;6.87;3.00;;;;;;;15.32;34.53;99451.72;128021;1098;100857;-80
2021/05/12 02:09:04;;;;;;;5.47;3.17;;;;;;;15.27;34.77;99447.72;128019;1099;100713;-80
2021/05/12 02:11:52;;;;;;;6.57;3.00;;;;;;;15.22;34.76;99434.01;128192;1098;101171;-80
2021/05/12 02:14:39;;;;;;;5.63;2.97;;;;;;;15.18;34.80;99454.38;128033;1098;100751;-80
2021/05/12 02:17:27;;;;;;;4.93;2.97;;;;;;;15.13;34.76;99440.70;128063;1098;102171;-80
2021/05/12 02:20:18;;;;;;;6.00;3.30;;;;;;;15.08;35.13;99448.89;127993;1099;100869;-80
2021/05/12 02:23:11;;;;;;;5.90;2.87;;;;;;;15.04;35.30;99446.53;128211;1098;100735;-80
2021/05/12 02:25:59;;;;;;;7.20;3.10;;;;;;;15.01;35.29;99454.60;127983;1098;100784;-80
2021/05/12 02:28:46;;;;;;;4.57;2.60;;;;;;;14.98;35.38;99446.92;128196;1098;100775;-80
2021/05/12 02:31:34;;;;;;;6.17;2.57;;;;;;;14.95;35.45;99447.97;128026;1098;101871;-80
2021/05/12 02:34:22;;;;;;;7.73;3.00;;;;;;;14.93;35.63;99443.75;128045;1098;101055;-80
2021/05/12 02:37:10;;;;;;;3.80;2.70;;;;;;;14.91;35.65;99445.64;128214;1098;101101;-80
2021/05/12 02:39:58;;;;;;;;;;;;;;;14.88;35.77;99445.80;128055;1098;101065;-80
2021/05/12 02:42:47;;;;;;;5.15;2.95;;;;;;;14.84;35.82;99455.66;128235;1098;100831;-80
2021/05/12 02:45:35;;;;;;;10.00;3.20;;;;;;;14.80;36.16;99448.92;128025;1098;101747;-80
2021/05/12 02:48:22;;;;;;;7.67;2.90;;;;;;;14.77;36.00;99455.20;128004;1098;100939;-80
2021/05/12 02:51:10;;;;;;;5.70;3.57;;;;;;;14.74;35.88;99449.31;128017;1098;101088;-80
2021/05/12 02:53:57;;;;;;;;;;;;;;;14.72;36.10;99457.28;128236;1098;100681;-80
2021/05/12 02:56:45;;;;;;;5.50;3.10;;;;;;;14.68;36.20;99460.16;128233;1098;101012;-80
2021/05/12 02:59:33;;;;;;;6.27;3.00;;;;;;;14.66;36.28;99454.16;128060;1098;101567;-80
2021/05/12 03:02:21;;;;;;;4.73;2.97;;;;;;;14.64;36.33;99442.92;128153;1098;100784;-80
2021/05/12 03:05:16;;;;;;;9.27;3.10;;;;;;;14.63;36.58;99452.58;128234;1098;101005;-80
2021/05/12 03:08:04;;;;;;;7.13;2.70;;;;;;;14.59;36.66;99445.00;127980;1098;101068;-80
2021/05/12 03:10:51;;;;;;;4.53;2.90;;;;;;;14.58;36.69;99440.69;128021;1098;100964;-80
2021/05/12 03:13:39;;;;;;;6.30;2.80;;;;;;;14.56;36.57;99453.06;128034;1098;101970;-80
2021/05/12 03:16:28;;;;;;;5.60;3.08;;;;;;;14.56;36.65;99447.81;128158;1098;101241;-80
2021/05/12 03:19:17;;;;;;;6.43;3.10;;;;;;;14.55;36.77;99438.26;128026;1098;100786;-80
2021/05/12 03:22:04;;;;;;;6.57;3.30;;;;;;;14.53;36.78;99438.32;127994;1098;100838;-80
2021/05/12 03:24:52;;;;;;;6.23;2.70;;;;;;;14.50;37.03;99441.98;128023;1098;100846;-80
2021/05/12 03:27:39;;;;;;;;;;;;;;;14.50;36.87;99436.73;128189;1098;101564;-80
2021/05/12 03:30:32;;;;;;;6.43;3.30;;;;;;;14.49;36.92;99442.08;127994;1098;100913;-80
2021/05/12 03:33:20;;;;;;;8.77;3.00;;;;;;;14.49;37.23;99440.30;128150;1098;101062;-80
2021/05/12 03:36:09;;;;;;;12.20;3.10;;;;;;;14.51;37.02;99435.80;128048;1098;101065;-80
2021/05/12 03:38:56;;;;;;;7.00;2.80;;;;;;;14.54;37.27;99447.03;128041;1099;100922;-80
2021/05/12 03:41:44;;;;;;;7.63;2.87;;;;;;;14.54;37.25;99437.38;128005;1098;100743;-80
2021/05/12 03:44:35;;;;;;;6.60;2.93;;;;;;;14.55;37.25;99438.26;128132;1098;100805;-80
2021/05/12 03:47:23;;;;;;;9.80;3.27;;;;;;;14.58;37.18;99448.56;128036;1098;100858;-80
2021/05/12 03:50:11;;;;;;;9.23;2.83;;;;;;;14.63;37.21;99447.33;128032;1098;100728;-80
2021/05/12 03:52:59;;;;;;;9.50;3.10;;;;;;;14.65;37.28;99450.70;128018;1098;100668;-80
2021/05/12 03:55:47;;;;;;;8.53;2.90;;;;;;;14.68;37.24;99440.01;128033;1098;101488;-80
2021/05/12 03:58:34;;;;;;;;;;;;;;;14.71;37.07;99439.81;128153;1098;100778;-80
2021/05/12 04:01:22;;;;;;;6.47;2.80;;;;;;;14.73;37.35;99463.38;128037;1098;101019;-80
2021/05/12 04:04:10;;;;;;;;;;;;;;;14.76;37.27;99442.17;128250;1098;100711;-80
2021/05/12 04:06:58;;;;;;;8.53;2.97;;;;;;;14.78;37.31;99441.14;128219;1098;100816;-81
2021/05/12 04:09:45;;;;;;;6.37;2.97;;;;;;;14.81;37.20;99446.19;128028;1098;100824;-81
2021/05/12 04:12:33;;;;;;;10.27;2.70;;;;;;;14.86;37.32;99448.52;128183;1098;100928;-80
2021/05/12 04:15:21;;;;;;;5.97;3.00;;;;;;;14.91;37.17;99459.61;128065;1098;101105;-80
2021/05/12 04:18:09;;;;;;;10.23;2.77;;;;;;;14.97;36.98;99456.59;128034;1098;100827;-81
2021/05/12 04:20:56;;;;;;;6.00;3.03;;;;;;;15.03;37.15;99443.06;128046;1098;100848;-81
2021/05/12 04:23:45;;;;;;;8.93;2.67;;;;;;;15.08;36.86;99441.01;128221;1098;100790;-81
2021/05/12 04:26:32;;;;;;;9.53;3.00;;;;;;;15.15;36.84;99441.45;128006;1098;100770;-81
2021/05/12 04:29:20;;;;;;;6.47;2.73;;;;;;;15.20;36.75;99468.26;128227;1098;100822;-81
2021/05/12 04:32:07;;;;;;;7.53;2.77;;;;;;;15.26;36.83;99440.75;128232;1098;100745;-81
2021/05/12 04:34:55;;;;;;;5.03;2.73;;;;;;;15.35;36.86;99438.38;128248;1098;101041;-81
2021/05/12 04:37:43;;;;;;;7.40;3.23;;;;;;;15.43;36.92;99435.25;128041;1098;101599;-81
2021/05/12 04:40:30;;;;;;;6.73;2.88;;;;;;;15.49;36.60;99461.15;127994;1098;100705;-80
2021/05/12 04:43:19;;;;;;;10.37;3.10;;;;;;;15.56;36.67;99427.42;128242;1098;101036;-81
2021/05/12 04:46:06;;;;;;;9.33;2.90;;;;;;;15.65;36.75;99432.95;128034;1098;101034;-81
2021/05/12 04:48:54;;;;;;;7.90;2.80;;;;;;;15.73;36.18;99435.07;128215;1098;100811;-81
2021/05/12 04:51:41;;;;;;;;;;;;;;;15.83;36.34;99420.38;128247;1098;102105;-81
2021/05/12 04:54:29;;;;;;;6.43;2.87;;;;;;;15.94;36.16;99451.20;127976;1098;100779;-81
2021/05/12 04:57:17;;;;;;;7.53;2.87;;;;;;;16.03;36.05;99447.13;128001;1100;100757;-81
2021/05/12 05:00:06;;;;;;;7.17;2.83;;;;;;;16.16;35.86;99435.68;127997;1098;100859;-81
2021/05/12 05:02:55;;;;;;;5.60;3.00;;;;;;;16.29;35.60;99430.41;128199;1098;101007;-81
2021/05/12 05:05:44;;;;;;;6.70;2.77;;;;;;;16.44;35.47;99437.25;127997;1098;100798;-81
2021/05/12 05:08:31;;;;;;;7.93;2.90;;;;;;;16.60;35.45;99452.83;127957;1098;100894;-81
2021/05/12 05:11:19;;;;;;;9.13;2.73;;;;;;;16.95;34.86;99424.05;128188;1098;100712;-80
2021/05/12 05:14:07;;;;;;;8.30;2.80;;;;;;;18.37;33.13;99437.23;128021;1098;100724;-81
2021/05/12 05:16:55;;;;;;;7.43;2.80;;;;;;;20.29;30.17;99439.28;128247;1098;100973;-80
2021/05/12 05:19:43;;;;;;;8.70;2.80;;;;;;;21.81;28.45;99419.67;128016;1098;101557;-80
2021/05/12 05:22:31;;;;;;;10.63;3.27;;;;;;;23.35;25.85;99435.12;128189;1098;101031;-80
2021/05/12 05:25:19;;;;;;;10.80;3.00;;;;;;;24.37;25.40;99424.02;128207;1098;100826;-81
2021/05/12 05:28:06;;;;;;;5.57;2.77;;;;;;;25.20;22.75;99441.11;128103;1098;100729;-81
2021/05/12 05:30:54;;;;;;;10.87;2.77;;;;;;;26.00;22.69;99405.83;128216;1097;100670;-81
2021/05/12 05:34:00;;;;;;;14.70;3.27;;;;;;;26.72;21.62;99412.88;128235;1098;100866;-81
2021/05/12 05:37:06;;;;;;;8.97;2.67;;;;;;;27.45;20.84;99403.66;128080;1098;101004;-81
2021/05/12 05:40:13;;;;;;;12.40;2.80;;;;;;;27.97;19.57;99397.58;128251;1098;100737;-81
2021/05/12 05:43:20;;;;;;;9.65;2.78;;;;;;;28.41;19.75;99419.14;128257;1098;101437;-81
2021/05/12 05:46:26;;;;;;;7.70;3.07;;;;;;;28.85;19.02;99407.55;128249;1098;100711;-81
2021/05/12 05:49:35;;;;;;;9.43;2.70;;;;;;;29.14;18.22;99412.08;128258;1098;100726;-81
2021/05/12 05:52:41;;;;;;;4.70;2.37;;;;;;;29.55;18.89;99406.97;128224;1097;100832;-81
2021/05/12 05:55:47;;;;;;;6.93;2.57;;;;;;;30.40;18.63;99392.58;128202;1098;100749;-81
2021/05/12 05:58:58;;;;;;;9.53;3.07;;;;;;;30.78;17.44;99395.70;128246;1098;100948;-81
2021/05/12 06:02:06;;;;;;;11.60;2.58;;;;;;;30.82;17.79;99396.13;128234;1098;100895;-81
2021/05/12 06:05:13;;;;;;;9.20;2.70;;;;;;;31.28;17.87;99395.52;128231;1098;101016;-81
2021/05/12 06:08:21;;;;;;;8.47;2.70;;;;;;;31.48;15.31;99434.94;128196;1098;100815;-82
2021/05/12 06:11:31;;;;;;;12.53;2.70;;;;;;;31.43;16.42;99393.48;128015;1098;100886;-81
2021/05/12 06:14:38;;;;;;;6.93;2.40;;;;;;;31.34;16.36;99400.07;128019;1098;101687;-81
2021/05/12 06:17:48;;;;;;;8.87;2.57;;;;;;;31.45;16.14;99397.63;128225;1098;101095;-81
2021/05/12 06:20:54;;;;;;;6.47;2.43;;;;;;;31.76;16.57;99385.42;128189;1098;101836;-81
2021/05/12 06:24:06;;;;;;;6.97;2.50;;;;;;;31.68;16.20;99380.22;128176;1098;100929;-81
2021/05/12 06:27:16;;;;;;;22.37;3.90;;;;;;;31.85;15.77;99409.30;128087;1098;100693;-82
2021/05/12 06:30:50;;;;;;;9.40;2.63;;;;;;;31.80;15.98;99368.66;127775;1101;101431;-82
2021/05/12 06:33:59;;;;;;;7.80;2.73;;;;;;;31.34;15.70;99389.30;127687;1101;101243;-82
2021/05/12 06:37:05;;;;;;;8.87;2.67;;;;;;;31.75;16.12;99391.86;128149;1098;100835;-82
2021/05/12 06:40:13;;;;;;;6.10;2.57;;;;;;;32.18;15.65;99381.48;128035;1098;101121;-82
2021/05/12 06:43:01;;;;;;;11.73;2.60;;;;;;;32.49;15.29;99367.31;128039;1098;100762;-82
2021/05/12 06:45:49;;;;;;;12.20;2.30;;;;;;;32.09;15.13;99388.13;128120;1098;101077;-82
2021/05/12 06:48:37;;;;;;;7.90;2.43;;;;;;;31.98;15.58;99381.51;128233;1098;101026;-81
2021/05/12 06:51:25;;;;;;;6.57;2.27;;;;;;;31.89;15.36;99371.13;128027;1099;101897;-82
2021/05/12 06:54:12;;;;;;;11.37;2.50;;;;;;;31.69;15.80;99360.31;128006;1099;101699;-83
2021/05/12 06:57:00;;;;;;;13.17;2.60;;;;;;;32.13;15.85;99359.68;128207;1098;100900;-81
2021/05/12 06:59:47;;;;;;;5.00;2.37;;;;;;;32.35;14.77;99384.60;128027;1098;101059;-81
2021/05/12 07:02:35;;;;;;;7.93;2.13;;;;;;;32.16;15.36;99373.60;128200;1098;101329;-81
2021/05/12 07:05:23;;;;;;;9.17;2.20;;;;;;;32.19;14.66;99369.66;128017;1098;100842;-81
2021/05/12 07:08:11;;;;;;;11.03;2.20;;;;;;;32.06;15.27;99373.19;128239;1098;100814;-82
2021/05/12 07:10:58;;;;;;;4.23;1.67;;;;;;;32.17;14.98;99371.73;128216;1098;100734;-83
2021/05/12 07:13:46;;;;;;;10.30;2.47;;;;;;;32.20;14.97;99374.01;128225;1098;100702;-83
2021/05/12 07:16:34;;;;;;;7.27;1.90;;;;;;;32.01;15.11;99373.00;128145;1098;101078;-83
2021/05/12 07:19:22;;;;;;;10.47;2.23;;;;;;;31.80;15.25;99359.73;128227;1098;101034;-81
2021/05/12 07:22:09;;;;;;;9.47;1.77;;;;;;;31.92;15.59;99365.31;128026;1098;100852;-83
2021/05/12 07:24:57;;;;;;;4.60;2.23;;;;;;;32.07;15.46;99357.83;128179;1098;100811;-82
2021/05/12 07:27:45;;;;;;;14.43;2.00;;;;;;;32.08;15.23;99367.58;128252;1098;103601;-82
2021/05/12 07:30:33;;;;;;;6.67;2.33;;;;;;;32.21;15.73;99359.48;128257;1097;100795;-82
2021/05/12 07:33:21;;;;;;;12.87;2.07;;;;;;;32.00;15.58;99371.34;128068;1098;101502;-82
2021/05/12 07:36:08;;;;;;;10.77;1.80;;;;;;;31.95;16.52;99375.67;128205;1098;100961;-82
2021/05/12 07:38:56;;;;;;;8.60;2.27;;;;;;;32.08;16.05;99367.58;128253;1098;100663;-82
2021/05/12 07:41:44;;;;;;;7.57;2.20;;;;;;;32.23;16.30;99370.88;128037;1098;101091;-82
2021/05/12 07:44:32;;;;;;;8.93;2.00;;;;;;;32.03;16.15;99346.64;128207;1098;100697;-82
2021/05/12 07:47:20;;;;;;;13.30;1.73;;;;;;;31.73;16.43;99367.80;128148;1098;101516;-82
2021/05/12 07:50:30;;;;;;;8.57;2.13;;;;;;;31.99;16.65;99352.67;128202;1098;100788;-82
2021/05/12 07:53:29;;;;;;;8.40;1.87;;;;;;;32.08;16.32;99387.29;128097;1097;100969;-82
2021/05/12 07:56:21;;;;;;;11.67;2.10;;;;;;;32.20;16.41;99368.61;128167;1098;100684;-83
2021/05/12 07:59:14;;;;;;;10.40;2.27;;;;;;;32.28;16.67;99351.39;128026;1098;100751;-82
2021/05/12 08:02:04;;;;;;;6.37;2.20;;;;;;;32.38;16.33;99355.31;128068;1098;101714;-82
2021/05/12 08:04:52;;;;;;;10.27;1.60;;;;;;;32.24;16.52;99355.52;128168;1098;100931;-82
2021/05/12 08:07:40;;;;;;;13.87;2.07;;;;;;;31.85;16.57;99360.77;128200;1098;101070;-82
2021/05/12 08:10:28;;;;;;;3.90;1.73;;;;;;;31.56;17.21;99361.95;127981;1098;101025;-82
2021/05/12 08:13:15;;;;;;;6.07;1.60;;;;;;;31.66;17.50;99340.00;128100;1098;100928;-82
2021/05/12 08:16:03;;;;;;;5.67;1.53;;;;;;;31.52;16.82;99384.97;127998;1098;101653;-82
2021/05/12 08:18:51;;;;;;;7.37;1.60;;;;;;;31.11;17.54;99357.31;128221;1098;101457;-82
2021/05/12 08:21:38;;;;;;;7.17;1.63;;;;;;;30.81;17.59;99372.94;128270;1098;100659;-82
2021/05/12 08:24:29;;;;;;;5.67;1.53;;;;;;;30.68;17.51;99368.31;128076;1098;101168;-82
2021/05/12 08:27:16;;;;;;;10.50;2.40;;;;;;;30.54;18.67;99362.03;128213;1098;100654;-82
2021/05/12 08:30:05;;;;;;;7.33;1.93;;;;;;;30.69;18.26;99356.52;127971;1098;101471;-82
2021/05/12 08:32:56;;;;;;;9.90;2.30;;;;;;;30.71;18.06;99353.66;128159;1098;100944;-82
2021/05/12 08:35:45;;;;;;;6.00;2.00;;;;;;;30.37;18.40;99358.84;128215;1098;100929;-82
2021/05/12 08:38:33;;;;;;;9.23;1.80;;;;;;;30.28;18.64;99349.25;128211;1098;100758;-82
2021/05/12 08:41:21;;;;;;;9.40;2.57;;;;;;;30.11;18.62;99347.07;128214;1098;100713;-82
2021/05/12 08:44:14;;;;;;;13.20;2.33;;;;;;;30.07;18.72;99355.54;128149;1098;101467;-82
2021/05/12 08:47:02;;;;;;;12.63;2.63;;;;;;;30.13;19.18;99345.02;128083;1098;100695;-82
2021/05/12 08:50:16;;;;;;;7.63;2.13;;;;;;;30.35;18.42;99335.86;128076;1101;100920;-82
2021/05/12 08:53:12;;;;;;;8.53;2.13;;;;;;;30.47;18.58;99336.94;127910;1101;100818;-82
2021/05/12 08:56:05;;;;;;;8.67;2.00;;;;;;;30.26;18.76;99339.72;127850;1100;100811;-82
2021/05/12 08:58:53;;;;;;;16.27;3.37;;;;;;;30.49;19.54;99332.18;127851;1101;102184;-82
2021/05/12 09:01:40;;;;;;;8.37;1.80;;;;;;;31.03;18.59;99323.30;127827;1101;102654;-82
2021/05/12 09:04:28;;;;;;;6.13;1.50;;;;;;;31.26;18.36;99325.67;127861;1101;103107;-83
2021/05/12 09:07:16;;;;;;;7.50;1.90;;;;;;;31.07;18.58;99324.57;127885;1101;100914;-83
2021/05/12 09:10:05;;;;;;;7.30;2.07;;;;;;;30.80;18.42;99320.95;127876;1101;100708;-83
2021/05/12 09:12:56;;;;;;;14.67;2.70;;;;;;;30.60;18.67;99320.86;127903;1101;100801;-83
2021/05/12 09:15:44;;;;;;;9.10;1.90;;;;;;;30.51;18.38;99316.66;127852;1101;101361;-83
2021/05/12 09:18:31;;;;;;;7.07;1.70;;;;;;;30.45;18.31;99312.09;127893;1101;101001;-83
2021/05/12 09:21:19;;;;;;;7.10;1.90;;;;;;;30.43;17.92;99314.16;127876;1101;101212;-83
2021/05/12 09:24:22;;;;;;;11.43;2.00;;;;;;;30.19;18.65;99309.28;127909;1101;101065;-83
2021/05/12 09:27:19;;;;;;;5.40;1.83;;;;;;;30.19;18.52;99352.31;127852;1101;102075;-82
2021/05/12 09:30:09;;;;;;;4.97;1.30;;;;;;;29.97;18.50;99311.98;127896;1101;100906;-82
2021/05/12 09:32:57;;;;;;;12.00;2.60;;;;;;;29.90;18.50;99327.26;127903;1101;100949;-82
2021/05/12 09:35:55;;;;;;;9.55;1.40;;;;;;;29.74;18.70;99325.69;127856;1101;101068;-83
2021/05/12 09:38:52;;;;;;;9.67;1.70;;;;;;;29.42;19.14;99324.34;127887;1101;100794;-82
2021/05/12 09:41:40;;;;;;;9.90;2.20;;;;;;;29.27;19.91;99302.13;127616;1101;101362;-82
2021/05/12 09:44:28;;;;;;;3.65;1.45;;;;;;;29.13;19.91;99308.38;127878;1101;100733;-82
2021/05/12 09:47:34;;;;;;;9.03;1.60;;;;;;;29.10;20.21;99304.23;127878;1101;101071;-82
2021/05/12 09:50:26;;;;;;;11.93;1.93;;;;;;;29.12;19.91;99329.03;127911;1101;101059;-82
2021/05/12 09:53:15;;;;;;;6.70;1.50;;;;;;;29.17;20.23;99320.40;127889;1101;100779;-83
2021/05/12 09:56:44;;;;;;;8.73;2.00;;;;;;;29.15;20.49;99317.91;127909;1101;101932;-82
2021/05/12 09:59:32;;;;;;;9.45;1.90;;;;;;;29.33;20.41;99317.46;127883;1101;101063;-82
2021/05/12 10:02:21;;;;;;;14.63;1.77;;;;;;;29.44;20.41;99295.47;127916;1101;101258;-82
2021/05/12 10:05:13;;;;;;;12.10;1.80;;;;;;;29.22;20.46;99304.53;127911;1101;100751;-82
2021/05/12 10:08:04;;;;;;;25.07;3.13;;;;;;;28.93;20.92;99301.98;127887;1101;100884;-82
2021/05/12 10:11:03;;;;;;;7.10;1.53;;;;;;;28.88;21.07;99326.69;127946;1101;102075;-82
2021/05/12 10:13:50;;;;;;;10.53;1.70;;;;;;;28.86;21.33;99312.63;127855;1101;100761;-81
2021/05/12 10:16:50;;;;;;;5.97;1.50;;;;;;;28.94;20.51;99311.70;127930;1101;100849;-81
2021/05/12 10:19:42;;;;;;;4.13;1.30;;;;;;;28.92;20.80;99305.69;127886;1101;100799;-81
2021/05/12 10:22:30;;;;;;;4.70;1.13;;;;;;;28.84;21.30;99287.80;127900;1101;101003;-82
2021/05/12 10:25:18;;;;;;;6.47;1.50;;;;;;;28.65;21.38;99334.85;127931;1101;101946;-81
2021/05/12 10:28:16;;;;;;;5.70;1.83;;;;;;;28.55;21.58;99294.09;127853;1101;101053;-81
2021/05/12 10:31:05;;;;;;;6.77;2.17;;;;;;;28.59;22.28;99303.42;127897;1101;100942;-82
2021/05/12 10:33:53;;;;;;;5.13;1.70;;;;;;;28.54;21.73;99301.28;127884;1101;100791;-82
2021/05/12 10:36:45;;;;;;;5.67;1.30;;;;;;;28.80;22.50;99303.45;127937;1101;100949;-82
2021/05/12 10:40:02;;;;;;;8.87;1.70;;;;;;;28.99;21.79;99307.41;127893;1101;100851;-81
2021/05/12 10:48:52;;;;;;;9.93;1.67;;;;;;;28.39;21.42;99308.54;127881;1101;100769;-83
2021/05/12 10:51:47;;;;;;;10.17;1.57;;;;;;;28.13;21.75;99337.62;127905;1101;101170;-83
2021/05/12 10:54:41;;;;;;;6.47;1.67;;;;;;;27.89;21.45;99314.59;127860;1101;103219;-82
2021/05/12 10:57:46;;;;;;;13.47;3.00;;;;;;;27.67;22.17;99301.08;127841;1101;100877;-83
2021/05/12 11:00:56;;;;;;;8.80;1.63;;;;;;;27.61;22.28;99315.14;127865;1101;100844;-83
2021/05/12 11:03:52;;;;;;;7.00;1.67;;;;;;;27.49;22.27;99313.94;127910;1101;100804;-83
2021/05/12 11:06:39;;;;;;;7.07;1.93;;;;;;;27.32;22.40;99289.13;127901;1101;100920;-83
2021/05/12 11:09:43;;;;;;;8.30;1.60;;;;;;;27.21;23.06;99291.39;127857;1101;100919;-82
2021/05/12 11:12:36;;;;;;;3.47;1.40;;;;;;;27.23;23.31;99305.42;127870;1101;100942;-82
2021/05/12 11:15:24;;;;;;;11.73;1.87;;;;;;;27.25;23.01;99287.34;127890;1101;100870;-81
2021/05/12 11:18:12;;;;;;;12.67;1.93;;;;;;;27.14;23.04;99293.96;127887;1101;100789;-81
2021/05/12 11:21:39;;;;;;;8.13;1.80;;;;;;;26.99;23.18;99288.51;127897;1101;101167;-82
2021/05/12 11:24:27;;;;;;;4.43;1.50;;;;;;;27.06;23.02;99269.91;127926;1101;101532;-82
2021/05/12 11:28:00;;;;;;;5.37;1.43;;;;;;;27.06;23.44;99273.42;127844;1101;101172;-81
2021/05/12 11:33:45;;;;;;;6.97;1.40;;;;;;;27.07;23.78;99276.93;127926;1100;101449;-82
2021/05/12 11:36:36;;;;;;;5.47;1.73;;;;;;;27.18;23.45;99289.08;127896;1101;100699;-82
2021/05/12 11:39:41;;;;;;;8.13;1.70;;;;;;;27.21;23.60;99269.98;127894;1101;101819;-82
2021/05/12 11:42:31;;;;;;;6.67;1.60;;;;;;;27.19;23.47;99264.80;127844;1101;100912;-82
2021/05/12 11:45:21;;;;;;;13.40;1.80;;;;;;;27.08;23.05;99275.92;127918;1101;100878;-82
2021/05/12 11:48:08;;;;;;;8.07;1.40;;;;;;;26.98;23.83;99268.11;127903;1101;101028;-82
2021/05/12 11:50:56;;;;;;;9.87;1.73;;;;;;;27.14;23.94;99298.48;127898;1101;100873;-82
2021/05/12 11:53:44;;;;;;;13.37;2.23;;;;;;;27.15;23.72;99273.38;127915;1101;101050;-83
2021/05/12 11:56:33;;;;;;;6.17;2.00;;;;;;;27.11;23.46;99267.55;127874;1101;100878;-82
2021/05/12 11:59:24;;;;;;;11.73;1.80;;;;;;;27.14;23.93;99293.13;127930;1101;101167;-82
2021/05/12 12:02:13;;;;;;;3.03;1.50;;;;;;;27.07;23.40;99251.00;127853;1101;100834;-81
2021/05/12 12:05:03;;;;;;;8.80;1.77;;;;;;;27.04;23.37;99270.09;127898;1101;100792;-82
2021/05/12 12:07:50;;;;;;;8.13;1.97;;;;;;;26.94;24.00;99256.11;127868;1101;101458;-81
2021/05/12 12:10:38;;;;;;;7.83;1.73;;;;;;;26.97;24.15;99245.04;127865;1101;101364;-84
2021/05/12 12:13:26;;;;;;;10.97;2.10;;;;;;;26.98;23.33;99257.41;127884;1101;100769;-83
2021/05/12 12:16:14;;;;;;;7.93;1.83;;;;;;;26.93;23.76;99243.74;127913;1101;100821;-82
2021/05/12 12:19:27;;;;;;;5.87;1.83;;;;;;;26.83;23.24;99239.63;127911;1101;100119;-81
2021/05/12 12:22:16;;;;;;;13.80;2.40;;;;;;;26.75;23.60;99252.05;127823;1101;101964;-81
2021/05/12 12:25:18;;;;;;;6.37;1.77;;;;;;;26.73;23.65;99240.67;127816;1101;101025;-81
2021/05/12 12:28:06;;;;;;;7.47;2.03;;;;;;;26.75;23.54;99227.12;127610;1101;101495;-82
2021/05/12 12:30:53;;;;;;;13.47;2.00;;;;;;;26.77;23.37;99254.55;127536;1104;100901;-82
2021/05/12 12:33:41;;;;;;;6.10;1.80;;;;;;;26.76;23.53;99252.89;127661;1101;100861;-83
2021/05/12 12:36:29;;;;;;;7.40;1.90;;;;;;;26.75;23.49;99261.89;127540;1104;101589;-83
2021/05/12 12:39:18;;;;;;;9.77;1.83;;;;;;;26.75;24.06;99251.19;127576;1101;101047;-83
2021/05/12 12:42:07;;;;;;;8.60;2.50;;;;;;;26.81;24.21;99234.45;127653;1101;100968;-83
2021/05/12 12:44:57;;;;;;;6.83;1.87;;;;;;;26.83;23.62;99243.13;127645;1101;100847;-83
2021/05/12 12:48:07;;;;;;;9.05;2.20;;;;;;;26.91;23.96;99248.41;127599;1102;100807;-85
2021/05/12 12:50:55;;;;;;;7.07;1.90;;;;;;;26.84;23.57;99243.96;127613;1102;102213;-83
2021/05/12 12:53:54;;;;;;;9.33;1.97;;;;;;;26.77;23.37;99244.68;127581;1102;100941;-85
2021/05/12 12:56:51;;;;;;;4.97;1.90;;;;;;;26.73;23.57;99301.36;127625;1101;100888;-88
2021/05/12 13:00:01;;;;;;;6.35;1.90;;;;;;;26.62;23.46;99246.44;127748;1101;101229;-86
2021/05/12 13:03:11;;;;;;;6.33;2.27;;;;;;;26.60;23.67;99242.28;127873;1101;100762;-81
2021/05/12 13:06:00;;;;;;;9.90;2.10;;;;;;;26.59;23.69;99246.80;127823;1101;101947;-81
2021/05/12 13:08:48;;;;;;;7.80;2.30;;;;;;;26.56;23.61;99256.99;127872;1101;100946;-81
2021/05/12 13:11:50;;;;;;;10.93;2.20;;;;;;;26.58;24.10;99237.11;127876;1101;101160;-81
2021/05/12 13:14:40;;;;;;;9.00;2.20;;;;;;;26.64;23.42;99230.22;127839;1101;100776;-80
2021/05/12 13:17:29;;;;;;;6.87;2.10;;;;;;;26.56;23.73;99224.91;127918;1101;100913;-81
2021/05/12 13:20:18;;;;;;;7.77;2.10;;;;;;;26.46;24.02;99242.02;127851;1101;100791;-81
2021/05/12 13:23:12;;;;;;;6.07;2.00;;;;;;;26.43;23.06;99254.91;127866;1101;101143;-81